Kezdőlap
METAR-TAF:

METAR-TAF

Repülőterek :

Malé, Maldív-szigetek

földrajzi szélesség: 04-12N, földrajzi hosszúság: 073-32E, magasság: 2 m

Jelenlegi meteorológiai megfigyelések

A jelentés 47 perccel ezelõtt készült, 01:00 UTC
Nyugat-északnyugati szél 6 kt
Hőmérséklet 30°C
Páratartalom 79%
Légköri nyomás 1009 hPa
Látótávolság 10 km, vagy több
Kevés felhő 1800 lábon
Szórványos felhőzet 28000 lábon

METAR: VRMM 250100Z 29006KT 9999 FEW018 SCT280 30/26 Q1009 NOSIG

Idő: 06:47 (01:47 UTC)

Előrejelzés

A jelentés 2 órával és 47 perccel ezelõtt készült, 23:00 UTC
Az előrejelzés 25-én 00 óra UTC és 26-én 06 óra UTC között érvényes
Nyugat-északnyugati szél 10 kt
Látótávolság 10 km, vagy több
Kevés felhő 1800 lábon
25-én 00 óra UTC és 25-én 09 óra UTC között ideiglenes
Látótávolság: 6000 m
Kevés felhő 1800 lábon, Cumulonimbus.
enyhe záporok

TAF: VRMM 242300Z 2500/2606 29010KT 9999 FEW018 TEMPO 2500/2509 6000 -SHRA FEW018CB

Meteorológiai megfigyelések és előrejelzések több, mint 4000 repülőtéren (METAR és TAF jelentéseket).

A térképen piros és sárga pontok jelzik az elérhető meteorológiai állomásokat.

Mozgassa az egeret a pont fölött, hogy megjelenjen az állomás neve.

Azután kattintson az időjárási megfigyelések és előrejelzések megtekintéséhez.

A térkép megváltoztatása: kattintson a fekete keresztel jelölt zöld gombra ráközelítéshez, a vonallal jelölt zöld gombra távolításhoz, vagy a zöld nyilakra a szomszédos térképek eléréséhez.


METAR-TAF: